PPNOB WBGG-WSSS
Flight info
| Callsign | PPNOB |
|---|---|
| Flight time | 1h 4m |
| Altitude | 380 |
| Route | DODSO G580 MOXUN |
| Aircraft | B737/M-SGWR/S |
Departure
| Time | 2026-05-07 13:37 |
|---|---|
| Airport | Kuching International Airport (WBGG) |
Arrival
| Time | 2026-05-07 14:41 |
|---|---|
| Airport | Singapore Changi Airport (WSSS) |
| Time | Latitude | Longitude | Altitude | Speed | Heading |
|---|---|---|---|---|---|
| 2026-05-07 13:33 | 1.49189 | 110.36422 | 51 ft | 3 kts | 248° |
| 2026-05-07 13:33 | 1.49182 | 110.36405 | 51 ft | 3 kts | 248° |
| 2026-05-07 13:33 | 1.49176 | 110.36390 | 52 ft | 2 kts | 249° |
| 2026-05-07 13:33 | 1.49172 | 110.36377 | 52 ft | 2 kts | 249° |
| 2026-05-07 13:34 | 1.49170 | 110.36373 | 53 ft | 0 kts | 249° |
| 2026-05-07 13:36 | 1.49163 | 110.36357 | 50 ft | 25 kts | 249° |
| 2026-05-07 13:37 | 1.48948 | 110.35818 | 68 ft | 138 kts | 248° |
| 2026-05-07 13:37 | 1.48501 | 110.34713 | 656 ft | 191 kts | 247° |
| 2026-05-07 13:37 | 1.48146 | 110.33372 | 1871 ft | 207 kts | 266° |
| 2026-05-07 13:37 | 1.48109 | 110.31901 | 3074 ft | 216 kts | 269° |
| 2026-05-07 13:38 | 1.48127 | 110.30366 | 4268 ft | 227 kts | 270° |
| 2026-05-07 13:38 | 1.48092 | 110.28751 | 5449 ft | 242 kts | 266° |
| 2026-05-07 13:38 | 1.47995 | 110.26940 | 6178 ft | 278 kts | 266° |
| 2026-05-07 13:38 | 1.47891 | 110.24998 | 7470 ft | 280 kts | 266° |
| 2026-05-07 13:39 | 1.47797 | 110.23048 | 8825 ft | 284 kts | 267° |
| 2026-05-07 13:39 | 1.47713 | 110.21047 | 10044 ft | 291 kts | 268° |
| 2026-05-07 13:39 | 1.47637 | 110.19014 | 11021 ft | 304 kts | 268° |
| 2026-05-07 13:39 | 1.47564 | 110.16849 | 11869 ft | 319 kts | 268° |
| 2026-05-07 13:40 | 1.47494 | 110.14572 | 12900 ft | 328 kts | 269° |
| 2026-05-07 13:40 | 1.47429 | 110.12305 | 13956 ft | 333 kts | 269° |
| 2026-05-07 13:40 | 1.47365 | 110.09967 | 14889 ft | 339 kts | 269° |
| 2026-05-07 13:40 | 1.47302 | 110.07590 | 15794 ft | 345 kts | 269° |
| 2026-05-07 13:41 | 1.47239 | 110.05169 | 16680 ft | 352 kts | 269° |
| 2026-05-07 13:41 | 1.47176 | 110.02699 | 17559 ft | 358 kts | 269° |
| 2026-05-07 13:41 | 1.47112 | 110.00189 | 18373 ft | 364 kts | 269° |
| 2026-05-07 13:41 | 1.47048 | 109.97648 | 19106 ft | 368 kts | 269° |
| 2026-05-07 13:42 | 1.46983 | 109.95072 | 19860 ft | 372 kts | 269° |
| 2026-05-07 13:42 | 1.46918 | 109.92462 | 20476 ft | 381 kts | 269° |
| 2026-05-07 13:42 | 1.46850 | 109.89767 | 20921 ft | 394 kts | 269° |
| 2026-05-07 13:42 | 1.46781 | 109.87008 | 21543 ft | 399 kts | 269° |
| 2026-05-07 13:43 | 1.46711 | 109.84224 | 22254 ft | 402 kts | 269° |
| 2026-05-07 13:43 | 1.46640 | 109.81412 | 22931 ft | 406 kts | 269° |
| 2026-05-07 13:43 | 1.46568 | 109.78578 | 23533 ft | 411 kts | 268° |
| 2026-05-07 13:43 | 1.46496 | 109.75708 | 24060 ft | 417 kts | 268° |
| 2026-05-07 13:44 | 1.46423 | 109.72835 | 24700 ft | 419 kts | 268° |
| 2026-05-07 13:44 | 1.46350 | 109.69917 | 25350 ft | 422 kts | 268° |
| 2026-05-07 13:44 | 1.46275 | 109.66976 | 25940 ft | 425 kts | 268° |
| 2026-05-07 13:44 | 1.46201 | 109.64002 | 26500 ft | 429 kts | 268° |
| 2026-05-07 13:45 | 1.46125 | 109.61013 | 27141 ft | 430 kts | 268° |
| 2026-05-07 13:45 | 1.46050 | 109.58023 | 27890 ft | 428 kts | 268° |
| 2026-05-07 13:45 | 1.45975 | 109.55064 | 28652 ft | 426 kts | 268° |
| 2026-05-07 13:45 | 1.45900 | 109.52104 | 29362 ft | 425 kts | 268° |
| 2026-05-07 13:46 | 1.45826 | 109.49151 | 30008 ft | 425 kts | 268° |
| 2026-05-07 13:46 | 1.45751 | 109.46196 | 30580 ft | 423 kts | 268° |
| 2026-05-07 13:46 | 1.45677 | 109.43269 | 31245 ft | 419 kts | 268° |
| 2026-05-07 13:46 | 1.45604 | 109.40376 | 31927 ft | 414 kts | 268° |
| 2026-05-07 13:47 | 1.45532 | 109.37510 | 32521 ft | 412 kts | 268° |
| 2026-05-07 13:47 | 1.45460 | 109.34685 | 33071 ft | 410 kts | 268° |
| 2026-05-07 13:47 | 1.45388 | 109.31844 | 33634 ft | 408 kts | 268° |
| 2026-05-07 13:47 | 1.45316 | 109.29004 | 33942 ft | 412 kts | 268° |
| 2026-05-07 13:48 | 1.45242 | 109.26118 | 34222 ft | 416 kts | 268° |
| 2026-05-07 13:48 | 1.45169 | 109.23223 | 34497 ft | 420 kts | 268° |
| 2026-05-07 13:48 | 1.45094 | 109.20292 | 34774 ft | 423 kts | 269° |
| 2026-05-07 13:48 | 1.45019 | 109.17338 | 35051 ft | 426 kts | 269° |
| 2026-05-07 13:49 | 1.44944 | 109.14358 | 35333 ft | 429 kts | 269° |
| 2026-05-07 13:49 | 1.44868 | 109.11380 | 35616 ft | 431 kts | 269° |
| 2026-05-07 13:49 | 1.44792 | 109.08384 | 35904 ft | 433 kts | 269° |
| 2026-05-07 13:49 | 1.44715 | 109.05360 | 36190 ft | 434 kts | 269° |
| 2026-05-07 13:50 | 1.44638 | 109.02339 | 36482 ft | 436 kts | 269° |
| 2026-05-07 13:50 | 1.44560 | 108.99299 | 36778 ft | 437 kts | 269° |
| 2026-05-07 13:50 | 1.44484 | 108.96300 | 37060 ft | 438 kts | 269° |
| 2026-05-07 13:50 | 1.44406 | 108.93243 | 37258 ft | 441 kts | 269° |
| 2026-05-07 13:51 | 1.44327 | 108.90159 | 37468 ft | 444 kts | 269° |
| 2026-05-07 13:51 | 1.44248 | 108.87066 | 37672 ft | 447 kts | 269° |
| 2026-05-07 13:51 | 1.44169 | 108.83954 | 37849 ft | 450 kts | 269° |
| 2026-05-07 13:52 | 1.44007 | 108.77611 | 37861 ft | 462 kts | 269° |
| 2026-05-07 13:52 | 1.43841 | 108.71121 | 37858 ft | 471 kts | 269° |
| 2026-05-07 13:53 | 1.43672 | 108.64561 | 37851 ft | 473 kts | 269° |
| 2026-05-07 13:53 | 1.43505 | 108.58034 | 37850 ft | 473 kts | 269° |
| 2026-05-07 13:54 | 1.43335 | 108.51452 | 37851 ft | 473 kts | 269° |
| 2026-05-07 13:54 | 1.43167 | 108.44885 | 37852 ft | 473 kts | 269° |
| 2026-05-07 13:55 | 1.42997 | 108.38316 | 37852 ft | 473 kts | 269° |
| 2026-05-07 13:55 | 1.42828 | 108.31743 | 37852 ft | 473 kts | 269° |
| 2026-05-07 13:56 | 1.42658 | 108.25170 | 37849 ft | 473 kts | 268° |
| 2026-05-07 13:56 | 1.42488 | 108.18594 | 37854 ft | 473 kts | 268° |
| 2026-05-07 13:57 | 1.42318 | 108.12014 | 37854 ft | 473 kts | 268° |
| 2026-05-07 13:57 | 1.42149 | 108.05490 | 37855 ft | 473 kts | 268° |
| 2026-05-07 13:58 | 1.41979 | 107.98916 | 37855 ft | 473 kts | 268° |
| 2026-05-07 13:58 | 1.41808 | 107.92346 | 37856 ft | 473 kts | 268° |
| 2026-05-07 13:59 | 1.41638 | 107.85770 | 37853 ft | 473 kts | 268° |
| 2026-05-07 13:59 | 1.41467 | 107.79211 | 37856 ft | 473 kts | 268° |
| 2026-05-07 14:00 | 1.41296 | 107.72629 | 37853 ft | 473 kts | 268° |
| 2026-05-07 14:00 | 1.41125 | 107.66059 | 37857 ft | 473 kts | 269° |
| 2026-05-07 14:01 | 1.40953 | 107.59488 | 37856 ft | 473 kts | 269° |
| 2026-05-07 14:01 | 1.40810 | 107.54028 | 37854 ft | 473 kts | 269° |
| 2026-05-07 14:02 | 1.40639 | 107.47452 | 37857 ft | 473 kts | 268° |
| 2026-05-07 14:02 | 1.40466 | 107.40873 | 37853 ft | 473 kts | 268° |
| 2026-05-07 14:03 | 1.40294 | 107.34297 | 37862 ft | 473 kts | 268° |
| 2026-05-07 14:03 | 1.40121 | 107.27711 | 37865 ft | 473 kts | 268° |
| 2026-05-07 14:04 | 1.39948 | 107.21125 | 37860 ft | 474 kts | 268° |
| 2026-05-07 14:04 | 1.39777 | 107.14587 | 37857 ft | 474 kts | 268° |
| 2026-05-07 14:05 | 1.39603 | 107.07998 | 37857 ft | 474 kts | 268° |
| 2026-05-07 14:05 | 1.39430 | 107.01412 | 37858 ft | 474 kts | 268° |
| 2026-05-07 14:06 | 1.39256 | 106.94825 | 37857 ft | 474 kts | 268° |
| 2026-05-07 14:06 | 1.39083 | 106.88247 | 37858 ft | 474 kts | 268° |
| 2026-05-07 14:07 | 1.38909 | 106.81664 | 37856 ft | 474 kts | 268° |
| 2026-05-07 14:07 | 1.38734 | 106.75079 | 37858 ft | 473 kts | 268° |
| 2026-05-07 14:08 | 1.38561 | 106.68542 | 37856 ft | 473 kts | 268° |
| 2026-05-07 14:08 | 1.38387 | 106.61960 | 37855 ft | 473 kts | 268° |
| 2026-05-07 14:09 | 1.38212 | 106.55379 | 37857 ft | 474 kts | 268° |
| 2026-05-07 14:09 | 1.38037 | 106.48794 | 37857 ft | 474 kts | 268° |
| 2026-05-07 14:10 | 1.37863 | 106.42250 | 37856 ft | 474 kts | 268° |
| 2026-05-07 14:10 | 1.37688 | 106.35670 | 37857 ft | 474 kts | 268° |
| 2026-05-07 14:11 | 1.37513 | 106.29077 | 37856 ft | 474 kts | 268° |
| 2026-05-07 14:11 | 1.37338 | 106.22493 | 37858 ft | 474 kts | 268° |
| 2026-05-07 14:12 | 1.37179 | 106.15908 | 37860 ft | 474 kts | 269° |
| 2026-05-07 14:12 | 1.37027 | 106.09313 | 37856 ft | 474 kts | 269° |
| 2026-05-07 14:13 | 1.36873 | 106.02727 | 37857 ft | 474 kts | 269° |
| 2026-05-07 14:13 | 1.36717 | 105.96148 | 37840 ft | 468 kts | 269° |
| 2026-05-07 14:13 | 1.36642 | 105.92987 | 37698 ft | 458 kts | 269° |
| 2026-05-07 14:14 | 1.36565 | 105.89747 | 36891 ft | 460 kts | 268° |
| 2026-05-07 14:14 | 1.36489 | 105.86536 | 36100 ft | 463 kts | 268° |
| 2026-05-07 14:14 | 1.36414 | 105.83358 | 35341 ft | 466 kts | 268° |
| 2026-05-07 14:14 | 1.36124 | 105.80118 | 34561 ft | 469 kts | 256° |
| 2026-05-07 14:15 | 1.34997 | 105.77071 | 33827 ft | 469 kts | 240° |
| 2026-05-07 14:15 | 1.33151 | 105.74373 | 32891 ft | 472 kts | 232° |
| 2026-05-07 14:15 | 1.31113 | 105.71781 | 31954 ft | 476 kts | 230° |
| 2026-05-07 14:15 | 1.29040 | 105.69203 | 31353 ft | 472 kts | 231° |
| 2026-05-07 14:16 | 1.27022 | 105.66656 | 30921 ft | 465 kts | 231° |
| 2026-05-07 14:16 | 1.25052 | 105.64117 | 30299 ft | 461 kts | 232° |
| 2026-05-07 14:16 | 1.23076 | 105.61537 | 29006 ft | 472 kts | 232° |
| 2026-05-07 14:16 | 1.21095 | 105.58936 | 28494 ft | 464 kts | 233° |
| 2026-05-07 14:17 | 1.19542 | 105.56141 | 27868 ft | 459 kts | 249° |
| 2026-05-07 14:17 | 1.18805 | 105.53074 | 27276 ft | 453 kts | 265° |
| 2026-05-07 14:17 | 1.18672 | 105.49980 | 26694 ft | 448 kts | 269° |
| 2026-05-07 14:17 | 1.18631 | 105.46878 | 26097 ft | 444 kts | 270° |
| 2026-05-07 14:18 | 1.18607 | 105.43805 | 25508 ft | 440 kts | 270° |
| 2026-05-07 14:18 | 1.18572 | 105.40759 | 24930 ft | 437 kts | 270° |
| 2026-05-07 14:18 | 1.18520 | 105.37733 | 24352 ft | 434 kts | 269° |
| 2026-05-07 14:18 | 1.18454 | 105.34731 | 23783 ft | 431 kts | 269° |
| 2026-05-07 14:19 | 1.18381 | 105.31749 | 23159 ft | 429 kts | 269° |
| 2026-05-07 14:19 | 1.18304 | 105.28781 | 22538 ft | 425 kts | 269° |
| 2026-05-07 14:19 | 1.18228 | 105.25848 | 21961 ft | 420 kts | 269° |
| 2026-05-07 14:19 | 1.18152 | 105.22946 | 21437 ft | 415 kts | 269° |
| 2026-05-07 14:20 | 1.18078 | 105.20066 | 20846 ft | 412 kts | 269° |
| 2026-05-07 14:20 | 1.18005 | 105.17226 | 20478 ft | 403 kts | 269° |
| 2026-05-07 14:20 | 1.17934 | 105.14467 | 20267 ft | 391 kts | 269° |
| 2026-05-07 14:20 | 1.17866 | 105.11791 | 20099 ft | 379 kts | 269° |
| 2026-05-07 14:21 | 1.17802 | 105.09217 | 19794 ft | 373 kts | 269° |
| 2026-05-07 14:21 | 1.17745 | 105.06633 | 19387 ft | 370 kts | 269° |
| 2026-05-07 14:21 | 1.17692 | 105.04065 | 18959 ft | 369 kts | 269° |
| 2026-05-07 14:21 | 1.17640 | 105.01512 | 18538 ft | 367 kts | 269° |
| 2026-05-07 14:22 | 1.17587 | 104.98961 | 18107 ft | 366 kts | 269° |
| 2026-05-07 14:22 | 1.17533 | 104.96419 | 17637 ft | 364 kts | 269° |
| 2026-05-07 14:22 | 1.17480 | 104.93886 | 17199 ft | 365 kts | 269° |
| 2026-05-07 14:22 | 1.17425 | 104.91311 | 16766 ft | 376 kts | 269° |
| 2026-05-07 14:23 | 1.17370 | 104.88720 | 16346 ft | 381 kts | 269° |
| 2026-05-07 14:23 | 1.17313 | 104.86070 | 15912 ft | 380 kts | 269° |
| 2026-05-07 14:23 | 1.17257 | 104.83444 | 15486 ft | 377 kts | 269° |
| 2026-05-07 14:23 | 1.17201 | 104.80829 | 15064 ft | 374 kts | 269° |
| 2026-05-07 14:24 | 1.17144 | 104.78233 | 14652 ft | 372 kts | 269° |
| 2026-05-07 14:24 | 1.17085 | 104.75660 | 14248 ft | 369 kts | 269° |
| 2026-05-07 14:24 | 1.17026 | 104.73109 | 13965 ft | 364 kts | 269° |
| 2026-05-07 14:24 | 1.16968 | 104.70599 | 13693 ft | 358 kts | 269° |
| 2026-05-07 14:25 | 1.16911 | 104.68131 | 13394 ft | 354 kts | 269° |
| 2026-05-07 14:25 | 1.16855 | 104.65710 | 13097 ft | 353 kts | 269° |
| 2026-05-07 14:25 | 1.16799 | 104.63261 | 12803 ft | 354 kts | 269° |
| 2026-05-07 14:25 | 1.16743 | 104.60803 | 12511 ft | 352 kts | 269° |
| 2026-05-07 14:26 | 1.16687 | 104.58389 | 12205 ft | 343 kts | 269° |
| 2026-05-07 14:26 | 1.16633 | 104.56038 | 11916 ft | 335 kts | 269° |
| 2026-05-07 14:26 | 1.16580 | 104.53729 | 11623 ft | 328 kts | 269° |
| 2026-05-07 14:26 | 1.16528 | 104.51469 | 11336 ft | 322 kts | 269° |
| 2026-05-07 14:27 | 1.16477 | 104.49250 | 11049 ft | 317 kts | 269° |
| 2026-05-07 14:27 | 1.16429 | 104.47071 | 10768 ft | 311 kts | 270° |
| 2026-05-07 14:27 | 1.16786 | 104.44969 | 10465 ft | 306 kts | 291° |
| 2026-05-07 14:27 | 1.17811 | 104.43126 | 10207 ft | 300 kts | 304° |
| 2026-05-07 14:28 | 1.18982 | 104.41411 | 9933 ft | 297 kts | 305° |
| 2026-05-07 14:28 | 1.20160 | 104.39730 | 9649 ft | 293 kts | 305° |
| 2026-05-07 14:28 | 1.21322 | 104.38067 | 9342 ft | 290 kts | 305° |
| 2026-05-07 14:28 | 1.22466 | 104.36414 | 9040 ft | 287 kts | 305° |
| 2026-05-07 14:29 | 1.23595 | 104.34779 | 8736 ft | 284 kts | 306° |
| 2026-05-07 14:29 | 1.25048 | 104.33475 | 8442 ft | 281 kts | 329° |
| 2026-05-07 14:29 | 1.26729 | 104.32486 | 8158 ft | 278 kts | 330° |
| 2026-05-07 14:29 | 1.28399 | 104.31526 | 7906 ft | 277 kts | 330° |
| 2026-05-07 14:30 | 1.30030 | 104.30580 | 7670 ft | 273 kts | 330° |
| 2026-05-07 14:30 | 1.31660 | 104.29622 | 7442 ft | 270 kts | 329° |
| 2026-05-07 14:30 | 1.33262 | 104.28670 | 7243 ft | 264 kts | 329° |
| 2026-05-07 14:30 | 1.34808 | 104.27744 | 6983 ft | 254 kts | 329° |
| 2026-05-07 14:31 | 1.36298 | 104.26847 | 6733 ft | 245 kts | 329° |
| 2026-05-07 14:31 | 1.37727 | 104.25985 | 6520 ft | 235 kts | 328° |
| 2026-05-07 14:31 | 1.39099 | 104.25156 | 6279 ft | 226 kts | 328° |
| 2026-05-07 14:31 | 1.40419 | 104.24357 | 6028 ft | 219 kts | 328° |
| 2026-05-07 14:32 | 1.41705 | 104.23578 | 5770 ft | 212 kts | 328° |
| 2026-05-07 14:32 | 1.42951 | 104.22823 | 5516 ft | 207 kts | 328° |
| 2026-05-07 14:32 | 1.44172 | 104.22083 | 5278 ft | 204 kts | 328° |
| 2026-05-07 14:32 | 1.45382 | 104.21350 | 5071 ft | 203 kts | 328° |
| 2026-05-07 14:33 | 1.46634 | 104.20590 | 5060 ft | 217 kts | 328° |
| 2026-05-07 14:33 | 1.47922 | 104.19809 | 5012 ft | 216 kts | 328° |
| 2026-05-07 14:33 | 1.49203 | 104.19033 | 4987 ft | 214 kts | 328° |
| 2026-05-07 14:33 | 1.50478 | 104.18263 | 4983 ft | 215 kts | 329° |
| 2026-05-07 14:34 | 1.51784 | 104.17533 | 4967 ft | 216 kts | 330° |
| 2026-05-07 14:34 | 1.53111 | 104.16796 | 4724 ft | 221 kts | 330° |
| 2026-05-07 14:34 | 1.54423 | 104.16058 | 4536 ft | 216 kts | 330° |
| 2026-05-07 14:34 | 1.55735 | 104.15318 | 4354 ft | 211 kts | 329° |
| 2026-05-07 14:35 | 1.56759 | 104.14328 | 4164 ft | 209 kts | 298° |
| 2026-05-07 14:35 | 1.57339 | 104.13001 | 3966 ft | 209 kts | 290° |
| 2026-05-07 14:35 | 1.57870 | 104.11643 | 3490 ft | 211 kts | 289° |
| 2026-05-07 14:35 | 1.57984 | 104.10220 | 3150 ft | 202 kts | 253° |
| 2026-05-07 14:36 | 1.57327 | 104.09073 | 3108 ft | 185 kts | 231° |
| 2026-05-07 14:36 | 1.56517 | 104.08059 | 3057 ft | 189 kts | 230° |
| 2026-05-07 14:36 | 1.55684 | 104.07035 | 3003 ft | 191 kts | 228° |
| 2026-05-07 14:36 | 1.54612 | 104.06264 | 2943 ft | 190 kts | 207° |
| 2026-05-07 14:37 | 1.53432 | 104.05664 | 2885 ft | 190 kts | 205° |
| 2026-05-07 14:37 | 1.51032 | 104.04596 | 2738 ft | 182 kts | 202° |
| 2026-05-07 14:37 | 1.49920 | 104.04123 | 2531 ft | 168 kts | 202° |
| 2026-05-07 14:38 | 1.48885 | 104.03683 | 2342 ft | 158 kts | 202° |
| 2026-05-07 14:38 | 1.47907 | 104.03268 | 2156 ft | 152 kts | 202° |
| 2026-05-07 14:38 | 1.46928 | 104.02852 | 1956 ft | 153 kts | 202° |
| 2026-05-07 14:38 | 1.45953 | 104.02437 | 1759 ft | 151 kts | 202° |
| 2026-05-07 14:39 | 1.44997 | 104.02031 | 1573 ft | 149 kts | 202° |
| 2026-05-07 14:39 | 1.44051 | 104.01629 | 1384 ft | 147 kts | 202° |
| 2026-05-07 14:39 | 1.43113 | 104.01231 | 1204 ft | 145 kts | 202° |
| 2026-05-07 14:39 | 1.42183 | 104.00839 | 996 ft | 145 kts | 203° |
| 2026-05-07 14:40 | 1.41252 | 104.00440 | 809 ft | 144 kts | 202° |
| 2026-05-07 14:40 | 1.40337 | 104.00049 | 644 ft | 141 kts | 202° |
| 2026-05-07 14:40 | 1.39439 | 103.99665 | 470 ft | 140 kts | 203° |
| 2026-05-07 14:40 | 1.38539 | 103.99276 | 266 ft | 141 kts | 202° |
| 2026-05-07 14:41 | 1.37645 | 103.98902 | 92 ft | 136 kts | 202° |
| 2026-05-07 14:41 | 1.36820 | 103.98551 | 29 ft | 118 kts | 202° |
| 2026-05-07 14:41 | 1.36324 | 103.98344 | 27 ft | 56 kts | 202° |
| 2026-05-07 14:41 | 1.35991 | 103.98283 | 26 ft | 43 kts | 174° |
| 2026-05-07 14:42 | 1.35883 | 103.98295 | 27 ft | 0 kts | 173° |